Time;durP1;ratioP1;P1;durP2;ratioP2;P2;SDS_P1;SDS_P2;PMS_P1;PMS_P2;Temp;Humidity;BMP_temperature;BMP_pressure;BME280_temperature;BME280_humidity;BME280_pressure;Samples;Min_cycle;Max_cycle;Signal;HPM_P1;HPM_P2
2021/11/18 00:01:05;;;;;;;28.70;17.70;;;;;;;7.38;67.02;99623.83;213343;1323;139301;-59
2021/11/18 00:06:09;;;;;;;26.50;16.40;;;;;;;7.29;67.21;99628.45;214164;1325;139422;-61
2021/11/18 00:11:15;;;;;;;33.70;18.00;;;;;;;7.21;67.24;99627.33;213465;1323;139849;-60
2021/11/18 00:16:19;;;;;;;31.80;19.80;;;;;;;7.18;67.51;99633.80;211998;1324;141684;-59
2021/11/18 00:21:26;;;;;;;31.30;17.50;;;;;;;7.17;67.62;99635.63;212685;1324;139098;-61
2021/11/18 00:26:31;;;;;;;34.70;19.00;;;;;;;7.12;67.90;99639.88;213954;1324;138883;-57
2021/11/18 00:31:38;;;;;;;31.60;17.60;;;;;;;7.13;68.05;99647.78;213958;1323;139537;-57
2021/11/18 00:36:43;;;;;;;32.50;17.90;;;;;;;7.08;67.86;99649.35;213583;1321;139494;-59
2021/11/18 00:41:46;;;;;;;34.40;18.40;;;;;;;7.04;68.21;99649.34;213979;1324;140360;-61
2021/11/18 00:46:50;;;;;;;33.70;18.90;;;;;;;7.06;68.11;99650.70;213848;1325;139753;-59
2021/11/18 00:51:54;;;;;;;31.00;19.20;;;;;;;7.03;68.22;99650.60;213554;1325;140353;-59
2021/11/18 00:56:59;;;;;;;32.40;19.30;;;;;;;7.03;68.34;99651.64;212861;1324;139536;-59
2021/11/18 01:02:03;;;;;;;31.20;18.70;;;;;;;7.02;68.43;99662.46;213085;1325;139577;-59
2021/11/18 01:07:07;;;;;;;34.10;19.40;;;;;;;6.98;68.60;99661.40;213323;1323;139320;-59
2021/11/18 01:12:11;;;;;;;34.10;19.40;;;;;;;6.96;68.49;99666.06;212800;1325;139739;-59
2021/11/18 01:17:16;;;;;;;33.30;19.60;;;;;;;7.01;68.59;99667.61;213875;1325;139751;-59
2021/11/18 01:22:19;;;;;;;30.30;18.00;;;;;;;7.05;68.63;99663.06;213325;1327;139049;-60
2021/11/18 01:27:23;;;;;;;28.20;17.40;;;;;;;7.04;68.76;99667.86;214053;1324;139437;-59
2021/11/18 01:32:33;;;;;;;28.70;17.90;;;;;;;7.00;68.66;99666.08;213085;1327;139799;-57
2021/11/18 01:37:37;;;;;;;30.90;18.00;;;;;;;6.97;68.64;99657.55;212681;1324;139419;-60
2021/11/18 01:42:44;;;;;;;29.20;18.20;;;;;;;6.91;68.91;99660.25;212715;1325;139152;-59
2021/11/18 01:47:47;;;;;;;34.60;20.00;;;;;;;6.92;69.00;99662.86;212371;1330;142192;-60
2021/11/18 01:52:57;;;;;;;29.90;18.20;;;;;;;6.98;69.03;99657.48;213685;1323;139840;-60
2021/11/18 01:58:01;;;;;;;28.90;17.40;;;;;;;6.96;69.03;99638.52;213373;1324;138879;-60
2021/11/18 02:03:25;;;;;;;31.40;18.90;;;;;;;6.92;68.96;99618.05;212662;1325;139779;-59
2021/11/18 02:08:42;;;;;;;28.40;18.30;;;;;;;6.88;69.11;99624.89;213202;1324;139819;-59
2021/11/18 02:13:54;;;;;;;29.20;18.00;;;;;;;6.87;69.21;99630.75;213863;1324;139602;-59
2021/11/18 02:18:57;;;;;;;29.70;17.80;;;;;;;6.83;69.01;99628.07;213222;1324;139725;-60
2021/11/18 02:24:05;;;;;;;33.00;19.90;;;;;;;6.80;69.11;99639.45;212883;1324;139293;-57
2021/11/18 02:29:08;;;;;;;28.20;17.90;;;;;;;6.78;69.20;99639.73;214031;1325;140509;-60
2021/11/18 02:34:22;;;;;;;28.30;16.60;;;;;;;6.78;69.13;99634.27;212700;1330;139471;-59
2021/11/18 02:39:24;;;;;;;28.30;17.90;;;;;;;6.78;69.23;99637.25;214108;1325;139827;-59
2021/11/18 02:44:31;;;;;;;25.80;16.90;;;;;;;6.79;69.20;99648.15;213652;1324;139479;-58
2021/11/18 02:49:34;;;;;;;27.30;16.70;;;;;;;6.82;69.32;99654.02;213957;1322;139145;-59
2021/11/18 02:54:38;;;;;;;25.10;15.70;;;;;;;6.87;69.20;99658.59;212882;1325;140545;-59
2021/11/18 02:59:41;;;;;;;26.30;16.80;;;;;;;6.87;69.24;99667.23;212617;1324;139416;-60
2021/11/18 03:04:44;;;;;;;27.60;16.20;;;;;;;6.89;69.16;99676.34;212996;1328;139615;-59
2021/11/18 03:09:47;;;;;;;22.70;15.20;;;;;;;6.96;69.33;99667.63;213571;1324;139376;-58
2021/11/18 03:14:53;;;;;;;27.60;17.00;;;;;;;6.97;69.22;99679.24;213752;1325;205303;-58
2021/11/18 03:19:58;;;;;;;27.70;16.80;;;;;;;6.95;68.96;99682.31;213779;1325;139301;-60
2021/11/18 03:25:04;;;;;;;29.20;17.70;;;;;;;6.91;69.24;99680.35;212659;1330;139392;-59
2021/11/18 03:30:12;;;;;;;29.50;17.80;;;;;;;6.89;69.11;99678.48;213534;1328;138904;-58
2021/11/18 03:35:17;;;;;;;26.40;16.50;;;;;;;6.87;69.21;99676.23;212129;1328;140827;-58
2021/11/18 03:40:23;;;;;;;;;;;;;;;6.87;69.23;99672.36;213238;1323;140198;-58
2021/11/18 03:45:30;;;;;;;26.50;16.90;;;;;;;6.81;69.36;99680.17;214219;1325;124920;-57
2021/11/18 03:50:34;;;;;;;30.10;17.60;;;;;;;6.80;69.28;99678.30;213935;1323;139257;-58
2021/11/18 03:55:37;;;;;;;23.50;15.40;;;;;;;6.78;69.45;99679.21;213630;1326;139879;-60
2021/11/18 04:00:41;;;;;;;23.90;15.50;;;;;;;6.75;69.63;99680.39;212017;1333;139842;-59
2021/11/18 04:05:44;;;;;;;25.50;15.80;;;;;;;6.75;69.58;99685.52;213525;1327;139969;-60
2021/11/18 04:10:49;;;;;;;26.90;17.40;;;;;;;6.73;69.77;99693.88;213114;1323;139180;-64
2021/11/18 04:15:53;;;;;;;27.30;17.00;;;;;;;6.72;70.03;99690.56;213828;1325;140226;-61
2021/11/18 04:21:03;;;;;;;24.50;16.20;;;;;;;6.73;70.12;99691.05;213392;1328;141127;-59
2021/11/18 04:26:07;;;;;;;24.30;16.00;;;;;;;6.73;69.94;99692.30;213671;1323;139789;-60
2021/11/18 04:31:15;;;;;;;38.40;23.10;;;;;;;6.74;69.98;99696.12;213145;1327;139898;-60
2021/11/18 04:36:21;;;;;;;24.60;15.40;;;;;;;6.85;70.50;99702.41;214032;1327;139209;-61
2021/11/18 04:41:28;;;;;;;25.20;16.80;;;;;;;6.91;70.45;99711.04;213851;1323;142551;-60
2021/11/18 04:46:32;;;;;;;25.90;16.50;;;;;;;6.86;70.08;99710.49;213439;1323;138860;-59
2021/11/18 04:51:36;;;;;;;26.10;17.00;;;;;;;6.81;70.51;99720.02;212217;1329;140962;-60
2021/11/18 04:56:40;;;;;;;24.50;16.10;;;;;;;6.84;70.70;99721.50;213991;1324;139788;-59
2021/11/18 05:01:44;;;;;;;22.10;14.90;;;;;;;6.78;70.47;99720.13;213228;1323;140909;-60
2021/11/18 05:06:47;;;;;;;22.30;15.40;;;;;;;6.72;70.64;99725.64;214172;1322;139533;-59
2021/11/18 05:11:50;;;;;;;21.40;14.20;;;;;;;6.68;70.79;99728.95;212532;1330;140324;-60
2021/11/18 05:16:55;;;;;;;19.50;12.90;;;;;;;6.72;70.94;99729.70;212740;1324;139859;-58
2021/11/18 05:21:59;;;;;;;49.40;36.40;;;;;;;6.73;71.09;99730.91;212939;1327;140863;-57
2021/11/18 05:27:02;;;;;;;22.10;14.70;;;;;;;6.78;71.37;99745.36;213266;1320;138781;-57
2021/11/18 05:32:06;;;;;;;17.30;12.50;;;;;;;6.77;71.24;99749.45;214452;1327;139272;-57
2021/11/18 05:37:31;;;;;;;19.60;13.70;;;;;;;6.73;71.27;99756.48;212282;1327;139388;-59
2021/11/18 05:42:37;;;;;;;18.40;13.00;;;;;;;6.72;71.42;99760.55;213511;1327;140328;-59
2021/11/18 05:47:41;;;;;;;17.00;12.00;;;;;;;6.74;71.44;99768.96;213271;1324;139627;-59
2021/11/18 05:52:46;;;;;;;19.70;13.90;;;;;;;6.73;71.88;99777.10;213336;1325;139053;-60
2021/11/18 05:57:49;;;;;;;20.40;14.60;;;;;;;6.76;71.97;99777.52;213500;1323;139911;-60
2021/11/18 06:02:53;;;;;;;21.10;14.00;;;;;;;6.77;71.98;99787.36;213283;1324;139802;-58
2021/11/18 06:07:56;;;;;;;19.60;14.00;;;;;;;6.78;71.70;99795.43;212753;1324;139896;-58
2021/11/18 06:13:01;;;;;;;19.40;13.00;;;;;;;6.83;71.88;99796.67;213774;1321;139695;-58
2021/11/18 06:18:12;;;;;;;20.20;13.30;;;;;;;6.87;71.93;99797.41;214254;1322;139181;-61
2021/11/18 06:23:15;;;;;;;18.80;13.10;;;;;;;6.90;71.85;99804.38;212826;1327;140381;-61
2021/11/18 06:28:20;;;;;;;19.20;13.10;;;;;;;6.95;72.06;99803.48;213284;1323;139771;-60
2021/11/18 06:33:25;;;;;;;18.40;13.30;;;;;;;6.98;71.93;99810.10;213293;1322;142121;-61
2021/11/18 06:38:29;;;;;;;21.60;13.70;;;;;;;6.98;71.97;99819.45;213338;1323;140051;-61
2021/11/18 06:43:34;;;;;;;19.10;12.40;;;;;;;7.03;72.08;99813.79;213674;1327;139976;-61
2021/11/18 06:48:39;;;;;;;20.00;13.90;;;;;;;7.07;72.00;99812.77;212795;1322;139318;-61
2021/11/18 06:53:51;;;;;;;18.40;13.60;;;;;;;7.09;71.87;99812.00;214172;1322;139085;-61
2021/11/18 06:58:57;;;;;;;19.70;14.90;;;;;;;7.09;72.07;99817.11;213079;1325;140070;-59
2021/11/18 07:04:08;;;;;;;23.80;15.10;;;;;;;7.10;72.02;99815.31;213966;1326;153391;-60
2021/11/18 07:09:13;;;;;;;22.20;16.00;;;;;;;7.13;71.85;99818.73;213641;1321;138813;-58
2021/11/18 07:14:36;;;;;;;24.20;15.20;;;;;;;7.19;71.86;99817.66;214176;1322;139524;-59
2021/11/18 07:19:39;;;;;;;22.50;16.00;;;;;;;7.25;71.73;99813.89;212250;1324;140020;-59
2021/11/18 07:24:43;;;;;;;27.90;18.00;;;;;;;7.26;71.85;99815.27;212672;1327;139348;-59
2021/11/18 07:29:46;;;;;;;25.60;16.90;;;;;;;7.22;71.53;99811.52;214037;1322;138823;-60
2021/11/18 07:34:51;;;;;;;29.00;18.40;;;;;;;7.22;71.75;99818.98;212390;1322;138973;-62
2021/11/18 07:40:02;;;;;;;29.10;19.40;;;;;;;7.25;71.88;99817.77;213672;1324;139343;-62
2021/11/18 07:45:07;;;;;;;32.30;19.90;;;;;;;7.33;71.82;99814.50;212521;1324;139062;-63
2021/11/18 07:50:37;;;;;;;30.50;21.20;;;;;;;7.38;71.70;99823.33;213521;1322;139401;-63
2021/11/18 07:55:42;;;;;;;30.40;21.30;;;;;;;7.36;71.64;99818.44;213769;1322;139160;-58
2021/11/18 08:00:48;;;;;;;29.20;19.40;;;;;;;7.40;71.72;99825.02;212638;1324;139194;-59
2021/11/18 08:06:00;;;;;;;31.10;20.20;;;;;;;7.44;71.78;99825.41;213487;1324;139999;-61
2021/11/18 08:11:03;;;;;;;31.20;19.60;;;;;;;7.49;71.65;99825.38;212534;1326;139449;-62
2021/11/18 08:16:06;;;;;;;32.00;19.60;;;;;;;7.56;71.92;99827.77;213190;1324;139704;-61
2021/11/18 08:21:10;;;;;;;29.60;18.70;;;;;;;7.68;71.97;99823.96;213554;1324;139531;-60
2021/11/18 08:26:15;;;;;;;26.40;15.80;;;;;;;7.84;72.11;99823.92;213405;1324;140410;-60
2021/11/18 08:31:21;;;;;;;27.90;15.90;;;;;;;8.01;71.73;99832.10;212728;1324;139694;-59
2021/11/18 08:36:51;;;;;;;24.40;15.00;;;;;;;8.13;71.21;99829.14;213887;1321;139229;-60
2021/11/18 08:42:01;;;;;;;21.50;11.70;;;;;;;8.17;71.03;99829.68;214025;1324;208142;-59
2021/11/18 08:47:09;;;;;;;123.10;71.10;;;;;;;8.21;70.97;99833.40;212421;1324;140075;-61
2021/11/18 08:52:19;;;;;;;23.10;11.50;;;;;;;8.32;70.74;99844.29;212294;1324;139547;-59
2021/11/18 08:57:27;;;;;;;31.20;12.30;;;;;;;8.30;70.18;99840.12;212320;1328;139206;-61
2021/11/18 09:02:39;;;;;;;24.40;12.70;;;;;;;8.32;70.17;99848.18;214039;1324;140692;-58
2021/11/18 09:07:45;;;;;;;22.00;13.40;;;;;;;8.27;69.95;99853.85;213221;1320;138626;-58
2021/11/18 09:12:49;;;;;;;25.50;13.20;;;;;;;8.26;69.99;99861.48;213271;1322;139645;-59
2021/11/18 09:17:58;;;;;;;20.70;11.50;;;;;;;8.21;69.54;99863.98;212289;1325;140218;-58
2021/11/18 09:23:15;;;;;;;23.70;11.70;;;;;;;8.25;69.68;99875.16;212851;1328;140783;-61
2021/11/18 09:28:21;;;;;;;21.40;12.70;;;;;;;8.30;69.76;99873.88;212822;1324;234683;-60
2021/11/18 09:33:45;;;;;;;;;;;;;;;8.37;69.54;99877.54;213348;1321;139789;-60
2021/11/18 09:38:53;;;;;;;24.70;11.80;;;;;;;8.38;69.26;99885.11;213202;1322;124698;-60
2021/11/18 09:44:19;;;;;;;22.50;10.40;;;;;;;8.41;69.33;99878.82;212276;1325;139487;-62
2021/11/18 09:50:03;;;;;;;20.90;10.80;;;;;;;8.39;68.97;99882.59;212202;1328;141140;-60
2021/11/18 09:55:27;;;;;;;19.00;9.90;;;;;;;8.37;68.72;99879.30;212728;1324;139750;-60
2021/11/18 10:01:17;;;;;;;26.50;12.20;;;;;;;8.38;68.87;99872.73;213981;1324;139107;-59
2021/11/18 10:06:31;;;;;;;18.50;10.20;;;;;;;8.42;69.00;99876.09;212085;1328;139234;-57
2021/11/18 10:12:02;;;;;;;15.60;9.10;;;;;;;8.42;68.46;99878.25;212183;1325;139729;-58
2021/11/18 10:17:09;;;;;;;16.90;9.60;;;;;;;8.36;68.01;99873.15;213680;1324;139377;-59
2021/11/18 10:22:15;;;;;;;22.90;9.40;;;;;;;8.33;68.06;99859.13;213375;1323;139316;-59
2021/11/18 10:27:50;;;;;;;16.60;8.80;;;;;;;8.39;68.09;99853.59;212141;1331;139142;-59
2021/11/18 10:33:02;;;;;;;18.80;8.80;;;;;;;8.44;68.04;99858.18;212975;1324;139174;-60
2021/11/18 10:38:19;;;;;;;16.70;8.70;;;;;;;8.48;67.89;99855.33;213708;1324;139179;-59
2021/11/18 10:43:23;;;;;;;21.20;9.40;;;;;;;8.60;67.80;99857.86;213587;1321;139187;-57
2021/11/18 10:48:33;;;;;;;17.60;9.10;;;;;;;8.74;67.76;99860.83;213652;1324;138686;-57
2021/11/18 10:53:45;;;;;;;19.50;9.20;;;;;;;8.86;67.54;99853.81;213510;1324;139155;-60
2021/11/18 10:59:04;;;;;;;23.10;8.70;;;;;;;8.98;67.52;99854.70;213220;1322;141696;-59
2021/11/18 11:04:10;;;;;;;18.40;8.30;;;;;;;9.07;67.35;99857.31;213824;1322;139317;-58
2021/11/18 11:09:21;;;;;;;15.60;8.70;;;;;;;9.11;67.11;99860.17;212114;1331;138739;-59
2021/11/18 11:14:38;;;;;;;16.30;8.90;;;;;;;9.15;66.92;99850.60;214027;1322;181286;-59
2021/11/18 11:19:50;;;;;;;15.70;9.20;;;;;;;9.16;66.86;99842.27;213119;1321;141274;-58
2021/11/18 11:25:05;;;;;;;16.90;8.20;;;;;;;9.10;66.85;99836.47;211926;1331;138831;-59
2021/11/18 11:30:45;;;;;;;15.60;8.10;;;;;;;9.08;66.59;99827.57;213944;1324;138607;-59
2021/11/18 11:35:48;;;;;;;15.00;8.30;;;;;;;9.06;66.55;99827.27;214203;1324;140828;-60
2021/11/18 11:41:25;;;;;;;14.60;7.80;;;;;;;9.09;66.98;99825.02;214002;1321;139325;-57
2021/11/18 11:46:27;;;;;;;;;;;;;;;9.08;66.67;99824.55;213444;1322;138864;-57
2021/11/18 11:51:51;;;;;;;19.40;8.20;;;;;;;9.03;66.61;99829.70;213414;1324;124805;-57
2021/11/18 11:57:01;;;;;;;17.30;8.90;;;;;;;8.99;66.61;99823.16;213258;1326;139187;-60
2021/11/18 12:02:10;;;;;;;19.80;8.40;;;;;;;8.88;66.66;99826.13;212641;1321;138647;-58
2021/11/18 12:07:25;;;;;;;19.60;8.70;;;;;;;8.75;66.70;99828.05;213091;1322;139409;-59
2021/11/18 12:12:43;;;;;;;15.90;7.80;;;;;;;8.69;67.13;99831.31;213485;1324;139617;-57
2021/11/18 12:17:52;;;;;;;18.90;8.30;;;;;;;8.67;66.88;99834.77;213778;1322;138760;-56
2021/11/18 12:23:00;;;;;;;18.20;9.10;;;;;;;8.56;67.07;99837.88;213186;1322;139288;-59
2021/11/18 12:28:12;;;;;;;18.40;8.30;;;;;;;8.46;67.10;99828.56;213939;1318;139431;-59
2021/11/18 12:33:17;;;;;;;15.40;8.10;;;;;;;8.43;67.25;99832.77;213820;1324;139077;-56
2021/11/18 12:38:48;;;;;;;113.20;57.10;;;;;;;8.40;67.31;99831.27;214058;1322;140604;-56
2021/11/18 12:44:10;;;;;;;17.50;8.60;;;;;;;8.45;67.53;99831.25;212847;1324;140324;-57
2021/11/18 12:49:35;;;;;;;16.00;7.80;;;;;;;8.41;67.35;99830.34;212826;1324;139412;-56
2021/11/18 12:55:00;;;;;;;15.80;8.30;;;;;;;8.35;67.35;99825.25;213654;1324;141682;-56
2021/11/18 13:00:20;;;;;;;16.20;8.70;;;;;;;8.32;67.41;99829.79;213152;1322;139566;-60
2021/11/18 13:05:30;;;;;;;15.40;7.00;;;;;;;8.33;67.43;99823.06;213835;1322;138512;-58
2021/11/18 13:10:45;;;;;;;268.60;171.00;;;;;;;8.34;67.48;99826.34;213904;1325;139973;-58
2021/11/18 13:15:48;;;;;;;23.60;10.50;;;;;;;8.43;67.57;99824.11;213554;1320;139415;-55
2021/11/18 13:21:14;;;;;;;16.00;7.60;;;;;;;8.44;67.29;99818.57;213852;1321;138709;-60
2021/11/18 13:26:35;;;;;;;18.70;8.20;;;;;;;8.40;67.10;99820.50;212736;1322;138710;-59
2021/11/18 13:31:41;;;;;;;19.70;8.60;;;;;;;8.34;66.96;99822.48;212066;1325;139978;-58
2021/11/18 13:37:27;;;;;;;18.70;8.00;;;;;;;8.34;67.17;99823.88;214088;1321;138407;-58
2021/11/18 13:42:34;;;;;;;16.30;8.40;;;;;;;8.39;66.93;99823.70;212858;1322;140133;-57
2021/11/18 13:47:50;;;;;;;21.40;8.50;;;;;;;8.40;66.92;99824.02;212060;1328;139152;-57
2021/11/18 13:53:10;;;;;;;15.90;8.30;;;;;;;8.44;66.93;99826.52;213479;1324;139138;-58
2021/11/18 13:58:52;;;;;;;19.90;9.20;;;;;;;8.48;67.00;99818.91;213557;1322;139934;-56
2021/11/18 14:04:00;;;;;;;20.30;8.80;;;;;;;8.55;66.75;99817.05;213044;1321;139231;-58
2021/11/18 14:09:11;;;;;;;19.70;10.40;;;;;;;8.53;66.80;99803.17;212003;1325;138570;-57
2021/11/18 14:14:34;;;;;;;16.20;10.30;;;;;;;8.52;66.61;99798.94;212626;1328;138737;-56
2021/11/18 14:19:48;;;;;;;17.60;10.00;;;;;;;8.53;66.74;99800.50;213629;1324;139473;-58
2021/11/18 14:24:54;;;;;;;18.00;9.70;;;;;;;8.53;66.69;99801.91;213254;1324;141391;-61
2021/11/18 14:30:08;;;;;;;;;;;;;;;8.58;66.82;99809.51;212691;1323;138749;-61
2021/11/18 14:35:31;;;;;;;21.70;11.50;;;;;;;8.64;66.81;99820.92;214163;1321;126015;-57
2021/11/18 14:40:47;;;;;;;18.10;11.80;;;;;;;8.65;66.62;99818.73;213610;1324;141716;-58
2021/11/18 14:46:08;;;;;;;;;;;;;;;8.63;66.45;99819.38;213583;1323;139024;-58
2021/11/18 14:51:17;;;;;;;24.20;12.20;;;;;;;8.62;66.51;99816.23;213485;1321;127552;-58
2021/11/18 14:56:23;;;;;;;27.20;13.70;;;;;;;8.60;66.53;99820.20;212886;1322;139723;-55
2021/11/18 15:01:37;;;;;;;24.20;13.10;;;;;;;8.58;66.47;99824.55;213875;1323;139806;-59
2021/11/18 15:06:42;;;;;;;24.00;13.50;;;;;;;8.51;66.38;99823.58;212953;1324;139578;-57
2021/11/18 15:11:49;;;;;;;20.70;11.90;;;;;;;8.51;66.46;99834.73;213003;1322;139367;-56
2021/11/18 15:16:53;;;;;;;25.70;13.80;;;;;;;8.49;66.46;99831.95;212251;1328;140507;-58
2021/11/18 15:21:57;;;;;;;27.10;14.20;;;;;;;8.47;66.61;99830.83;213950;1322;138747;-60
2021/11/18 15:27:01;;;;;;;21.60;13.50;;;;;;;8.41;66.51;99824.86;212233;1325;140514;-56
2021/11/18 15:32:04;;;;;;;22.60;13.70;;;;;;;8.39;66.51;99833.62;214264;1324;140038;-57
2021/11/18 15:37:08;;;;;;;25.30;13.30;;;;;;;8.35;66.65;99837.13;214154;1322;138971;-58
2021/11/18 15:42:11;;;;;;;23.30;12.50;;;;;;;8.33;66.65;99842.69;212536;1324;139562;-58
2021/11/18 15:47:15;;;;;;;24.60;13.40;;;;;;;8.35;66.59;99848.79;213879;1323;139495;-57
2021/11/18 15:52:25;;;;;;;27.70;14.40;;;;;;;8.37;66.85;99856.67;213596;1322;138793;-58
2021/11/18 15:57:30;;;;;;;23.20;14.60;;;;;;;8.40;66.82;99857.64;213861;1322;139005;-56
2021/11/18 16:02:33;;;;;;;28.50;14.00;;;;;;;8.44;67.06;99855.33;213467;1324;139301;-57
2021/11/18 16:07:39;;;;;;;24.90;14.40;;;;;;;8.43;66.67;99859.09;212766;1322;139097;-56
2021/11/18 16:12:42;;;;;;;23.40;14.30;;;;;;;8.38;66.86;99848.84;213669;1322;139168;-58
2021/11/18 16:17:46;;;;;;;25.80;14.70;;;;;;;8.36;66.99;99846.63;214225;1321;139393;-57
2021/11/18 16:22:49;;;;;;;34.90;20.20;;;;;;;8.34;66.98;99854.48;212350;1325;140979;-60
2021/11/18 16:27:53;;;;;;;25.10;15.00;;;;;;;8.41;67.02;99868.54;212110;1328;140906;-58
2021/11/18 16:32:58;;;;;;;27.30;15.00;;;;;;;8.44;66.78;99851.98;212066;1324;139226;-60
2021/11/18 16:38:03;;;;;;;27.10;14.20;;;;;;;8.45;66.82;99844.70;212643;1325;140415;-60
2021/11/18 16:43:07;;;;;;;19.70;11.50;;;;;;;8.44;66.77;99842.96;211934;1325;139914;-59
2021/11/18 16:48:12;;;;;;;28.80;17.00;;;;;;;8.41;66.73;99850.33;212570;1324;139583;-58
2021/11/18 16:53:17;;;;;;;28.40;17.00;;;;;;;8.40;66.69;99843.84;211744;1328;140645;-59
2021/11/18 16:58:23;;;;;;;28.60;16.60;;;;;;;8.39;66.61;99845.99;211874;1331;139805;-61
2021/11/18 17:03:27;;;;;;;26.90;16.50;;;;;;;8.41;66.57;99841.31;212145;1323;141951;-61
2021/11/18 17:08:31;;;;;;;29.30;17.70;;;;;;;8.45;66.54;99839.38;211815;1325;139806;-59
2021/11/18 17:13:35;;;;;;;25.80;16.60;;;;;;;8.44;66.38;99839.61;212284;1325;140876;-58
2021/11/18 17:18:38;;;;;;;25.20;16.70;;;;;;;8.40;66.30;99844.00;214273;1322;139059;-58
2021/11/18 17:23:42;;;;;;;29.70;18.20;;;;;;;8.38;66.33;99853.81;213749;1324;138957;-60
2021/11/18 17:28:47;;;;;;;27.70;17.40;;;;;;;8.35;66.16;99859.55;212057;1327;139309;-60
2021/11/18 17:33:56;;;;;;;28.90;17.70;;;;;;;8.30;65.99;99854.60;213396;1322;139249;-59
2021/11/18 17:39:10;;;;;;;29.00;17.40;;;;;;;8.27;66.00;99854.36;212790;1321;139572;-60
2021/11/18 17:44:13;;;;;;;30.80;17.50;;;;;;;8.26;65.96;99854.79;213588;1323;140198;-61
2021/11/18 17:49:19;;;;;;;29.80;17.50;;;;;;;8.25;65.89;99862.98;214040;1323;139373;-59
2021/11/18 17:54:24;;;;;;;35.90;21.30;;;;;;;8.26;66.16;99873.00;212671;1324;139831;-60
2021/11/18 17:59:29;;;;;;;29.60;17.90;;;;;;;8.29;65.98;99873.91;212509;1324;138680;-60
2021/11/18 18:04:33;;;;;;;29.80;18.40;;;;;;;8.26;65.92;99845.43;212949;1324;139662;-61
2021/11/18 18:09:42;;;;;;;30.80;17.50;;;;;;;8.19;65.89;99811.75;214016;1322;140242;-59
2021/11/18 18:14:45;;;;;;;31.10;18.60;;;;;;;8.10;65.87;99825.36;213059;1324;139213;-59
2021/11/18 18:19:49;;;;;;;29.00;17.50;;;;;;;8.05;65.84;99820.45;213741;1323;138864;-60
2021/11/18 18:24:54;;;;;;;29.30;15.70;;;;;;;8.06;66.11;99829.23;213529;1322;140649;-59
2021/11/18 18:29:59;;;;;;;23.60;14.80;;;;;;;8.08;65.91;99837.83;211979;1329;139785;-59
2021/11/18 18:35:05;;;;;;;24.00;14.00;;;;;;;8.14;66.01;99828.59;214167;1322;140070;-59
2021/11/18 18:40:12;;;;;;;35.50;15.70;;;;;;;8.16;66.02;99837.33;214018;1325;138982;-60
2021/11/18 18:45:20;;;;;;;25.70;13.80;;;;;;;8.23;66.01;99834.55;214328;1321;139526;-59
2021/11/18 18:50:27;;;;;;;22.10;11.20;;;;;;;8.24;65.83;99826.23;213856;1322;140287;-60
2021/11/18 18:55:31;;;;;;;22.80;11.40;;;;;;;8.22;65.72;99817.45;213689;1325;140007;-59
2021/11/18 19:00:40;;;;;;;24.90;12.00;;;;;;;8.18;65.50;99805.23;213068;1324;139478;-59
2021/11/18 19:05:46;;;;;;;20.70;10.20;;;;;;;8.17;65.73;99810.40;212662;1325;139588;-59
2021/11/18 19:10:55;;;;;;;56.60;35.00;;;;;;;8.19;65.69;99810.70;212973;1328;139569;-61
2021/11/18 19:15:58;;;;;;;19.40;12.80;;;;;;;8.39;66.30;99811.84;213326;1322;241762;-59
2021/11/18 19:21:05;;;;;;;21.20;11.60;;;;;;;8.49;65.69;99806.69;213990;1323;139239;-61
2021/11/18 19:26:15;;;;;;;19.60;12.90;;;;;;;8.42;65.46;99803.78;213853;1323;139407;-59
2021/11/18 19:36:44;;;;;;;23.40;12.50;;;;;;;8.31;65.34;99790.39;213709;1328;139896;-59
2021/11/18 19:41:52;;;;;;;22.80;12.20;;;;;;;8.21;65.26;99806.35;213999;1322;138772;-59
2021/11/18 19:46:55;;;;;;;21.50;12.80;;;;;;;8.20;65.43;99814.36;212762;1322;139616;-61
2021/11/18 19:52:04;;;;;;;23.30;13.50;;;;;;;8.18;65.41;99809.11;212995;1328;140027;-59
2021/11/18 19:57:10;;;;;;;26.00;14.00;;;;;;;8.20;65.50;99805.70;212839;1327;139850;-60
2021/11/18 20:02:15;;;;;;;31.20;13.70;;;;;;;8.18;65.32;99804.91;214073;1323;139298;-61
2021/11/18 20:07:22;;;;;;;22.60;12.80;;;;;;;8.16;65.44;99804.45;212654;1323;139288;-60
2021/11/18 20:12:31;;;;;;;26.10;14.40;;;;;;;8.14;65.45;99809.11;213748;1323;139595;-59
2021/11/18 20:17:36;;;;;;;24.30;14.00;;;;;;;8.14;65.51;99796.78;212796;1328;139344;-61
2021/11/18 20:22:40;;;;;;;68.30;43.60;;;;;;;8.17;65.64;99794.30;213357;1326;140997;-60
2021/11/18 20:27:44;;;;;;;23.30;13.00;;;;;;;8.32;65.74;99784.02;213787;1322;138801;-60
2021/11/18 20:32:53;;;;;;;27.80;12.90;;;;;;;8.32;65.41;99779.95;214514;1322;142400;-60
2021/11/18 20:37:57;;;;;;;22.50;13.50;;;;;;;8.28;65.26;99790.16;214132;1323;139075;-61
2021/11/18 20:43:00;;;;;;;23.20;12.20;;;;;;;8.24;65.26;99790.69;213869;1323;138737;-60
2021/11/18 20:48:05;;;;;;;25.30;13.10;;;;;;;8.18;65.13;99780.69;214136;1326;139056;-60
2021/11/18 20:53:09;;;;;;;23.50;12.60;;;;;;;8.15;65.30;99776.03;214205;1323;139075;-60
2021/11/18 20:58:15;;;;;;;24.10;12.50;;;;;;;8.15;65.38;99773.20;213239;1330;139860;-61
2021/11/18 21:03:18;;;;;;;21.50;12.20;;;;;;;8.17;65.43;99769.59;212899;1330;139666;-61
2021/11/18 21:08:26;;;;;;;22.00;12.10;;;;;;;8.21;65.65;99762.72;214251;1322;139895;-60
2021/11/18 21:13:29;;;;;;;22.30;11.60;;;;;;;8.23;65.65;99756.95;213358;1321;139140;-60
2021/11/18 21:18:32;;;;;;;21.80;10.70;;;;;;;8.26;65.54;99756.13;214186;1323;139755;-59
2021/11/18 21:23:35;;;;;;;23.90;12.20;;;;;;;8.27;65.48;99753.06;213563;1323;139792;-59
2021/11/18 21:28:38;;;;;;;20.50;10.80;;;;;;;8.28;65.38;99745.97;213658;1325;139734;-58
2021/11/18 21:33:49;;;;;;;20.60;11.30;;;;;;;8.28;65.32;99743.13;214263;1326;139632;-59
2021/11/18 21:38:55;;;;;;;17.00;9.40;;;;;;;8.32;65.38;99738.21;213368;1325;140269;-60
2021/11/18 21:43:58;;;;;;;24.50;10.90;;;;;;;8.41;65.60;99739.11;212773;1326;139649;-60
2021/11/18 21:49:03;;;;;;;24.20;10.90;;;;;;;8.46;65.42;99732.73;213158;1326;142362;-59
2021/11/18 21:54:12;;;;;;;20.80;10.30;;;;;;;8.49;65.41;99726.38;212935;1327;139313;-59
2021/11/18 21:59:16;;;;;;;21.30;10.30;;;;;;;8.50;65.38;99719.13;213221;1323;139204;-59
2021/11/18 22:04:27;;;;;;;20.20;10.60;;;;;;;8.49;65.32;99711.88;213581;1324;139267;-58
2021/11/18 22:09:31;;;;;;;19.90;9.80;;;;;;;8.48;65.26;99711.19;213598;1322;139735;-59
2021/11/18 22:14:34;;;;;;;18.50;10.00;;;;;;;8.50;65.27;99703.36;214026;1327;138576;-60
2021/11/18 22:19:38;;;;;;;20.20;10.00;;;;;;;8.49;65.30;99694.55;211999;1325;139242;-60
2021/11/18 22:24:42;;;;;;;18.50;9.50;;;;;;;8.49;65.31;99688.02;212725;1326;139201;-60
2021/11/18 22:29:46;;;;;;;20.90;10.10;;;;;;;8.50;65.19;99693.11;213310;1324;139645;-58
2021/11/18 22:34:49;;;;;;;19.70;9.80;;;;;;;8.52;65.42;99689.31;213144;1321;139755;-59
2021/11/18 22:40:00;;;;;;;17.70;9.50;;;;;;;8.55;65.36;99681.05;213421;1322;139603;-59
2021/11/18 22:45:04;;;;;;;17.40;9.50;;;;;;;8.55;65.23;99669.20;213256;1324;138592;-59
2021/11/18 22:50:12;;;;;;;16.00;9.70;;;;;;;8.53;65.39;99656.55;213250;1324;138752;-59
2021/11/18 22:55:18;;;;;;;15.30;7.60;;;;;;;8.52;65.39;99652.69;213105;1326;138857;-59
2021/11/18 23:00:43;;;;;;;19.10;9.20;;;;;;;8.53;65.27;99659.36;213155;1322;139658;-58
2021/11/18 23:05:48;;;;;;;18.40;8.50;;;;;;;8.55;65.29;99649.41;213566;1322;138766;-57
2021/11/18 23:10:53;;;;;;;18.10;7.80;;;;;;;8.57;65.29;99645.77;212633;1330;138815;-59
2021/11/18 23:15:57;;;;;;;20.60;8.90;;;;;;;8.59;65.34;99635.23;213847;1321;140357;-58
2021/11/18 23:21:02;;;;;;;16.00;8.60;;;;;;;8.62;65.22;99627.15;212885;1325;139316;-58
2021/11/18 23:26:06;;;;;;;15.40;8.20;;;;;;;8.63;65.21;99620.73;213147;1325;139497;-60
2021/11/18 23:31:13;;;;;;;19.80;7.90;;;;;;;8.63;65.05;99618.27;212764;1328;138627;-61